sensor_id;sensor_type;location;lat;lon;timestamp;P1;durP1;ratioP1;P2;durP2;ratioP2
76900;SDS011;65859;43.020;25.096;2023-02-15T00:01:34;75.10;;;34.20;;
76900;SDS011;65859;43.020;25.096;2023-02-15T00:04:01;51.92;;;26.33;;
76900;SDS011;65859;43.020;25.096;2023-02-15T00:06:29;59.22;;;31.10;;
76900;SDS011;65859;43.020;25.096;2023-02-15T00:08:55;50.47;;;26.42;;
76900;SDS011;65859;43.020;25.096;2023-02-15T00:11:22;49.00;;;25.20;;
76900;SDS011;65859;43.020;25.096;2023-02-15T00:14:08;49.35;;;24.25;;
76900;SDS011;65859;43.020;25.096;2023-02-15T00:16:40;44.70;;;23.80;;
76900;SDS011;65859;43.020;25.096;2023-02-15T00:19:08;45.45;;;24.45;;
76900;SDS011;65859;43.020;25.096;2023-02-15T00:21:36;58.40;;;30.30;;
76900;SDS011;65859;43.020;25.096;2023-02-15T00:24:04;73.32;;;41.90;;
76900;SDS011;65859;43.020;25.096;2023-02-15T00:26:32;94.93;;;49.13;;
76900;SDS011;65859;43.020;25.096;2023-02-15T00:28:59;63.03;;;32.35;;
76900;SDS011;65859;43.020;25.096;2023-02-15T00:31:26;64.75;;;31.67;;
76900;SDS011;65859;43.020;25.096;2023-02-15T00:36:29;76.15;;;38.45;;
76900;SDS011;65859;43.020;25.096;2023-02-15T00:38:56;53.45;;;28.75;;
76900;SDS011;65859;43.020;25.096;2023-02-15T00:41:22;51.22;;;26.48;;
76900;SDS011;65859;43.020;25.096;2023-02-15T00:43:49;55.65;;;28.92;;
76900;SDS011;65859;43.020;25.096;2023-02-15T00:46:15;78.22;;;39.63;;
76900;SDS011;65859;43.020;25.096;2023-02-15T00:48:42;73.38;;;35.85;;
76900;SDS011;65859;43.020;25.096;2023-02-15T00:51:08;64.53;;;33.72;;
76900;SDS011;65859;43.020;25.096;2023-02-15T00:53:35;106.65;;;56.17;;
76900;SDS011;65859;43.020;25.096;2023-02-15T00:56:01;82.22;;;41.72;;
76900;SDS011;65859;43.020;25.096;2023-02-15T00:58:28;94.07;;;41.80;;
76900;SDS011;65859;43.020;25.096;2023-02-15T01:00:54;68.22;;;35.65;;
76900;SDS011;65859;43.020;25.096;2023-02-15T01:03:27;56.50;;;30.95;;
76900;SDS011;65859;43.020;25.096;2023-02-15T01:05:54;60.88;;;34.15;;
76900;SDS011;65859;43.020;25.096;2023-02-15T01:08:21;62.47;;;34.63;;
76900;SDS011;65859;43.020;25.096;2023-02-15T01:10:47;59.20;;;33.22;;
76900;SDS011;65859;43.020;25.096;2023-02-15T01:13:15;63.20;;;32.47;;
76900;SDS011;65859;43.020;25.096;2023-02-15T01:15:42;66.22;;;34.75;;
76900;SDS011;65859;43.020;25.096;2023-02-15T01:18:09;60.58;;;31.95;;
76900;SDS011;65859;43.020;25.096;2023-02-15T01:20:37;75.15;;;38.70;;
76900;SDS011;65859;43.020;25.096;2023-02-15T01:23:06;61.10;;;29.85;;
76900;SDS011;65859;43.020;25.096;2023-02-15T01:25:34;63.10;;;31.98;;
76900;SDS011;65859;43.020;25.096;2023-02-15T01:28:01;71.63;;;35.53;;
76900;SDS011;65859;43.020;25.096;2023-02-15T01:30:28;78.63;;;41.15;;
76900;SDS011;65859;43.020;25.096;2023-02-15T01:32:55;77.50;;;40.20;;
76900;SDS011;65859;43.020;25.096;2023-02-15T01:35:22;68.57;;;35.75;;
76900;SDS011;65859;43.020;25.096;2023-02-15T01:37:50;60.17;;;31.13;;
76900;SDS011;65859;43.020;25.096;2023-02-15T01:40:17;53.10;;;29.90;;
76900;SDS011;65859;43.020;25.096;2023-02-15T01:42:45;57.65;;;31.02;;
76900;SDS011;65859;43.020;25.096;2023-02-15T01:47:52;59.13;;;32.10;;
76900;SDS011;65859;43.020;25.096;2023-02-15T01:53:06;55.78;;;27.98;;
76900;SDS011;65859;43.020;25.096;2023-02-15T01:55:52;65.13;;;34.63;;
76900;SDS011;65859;43.020;25.096;2023-02-15T01:58:43;77.80;;;39.92;;
76900;SDS011;65859;43.020;25.096;2023-02-15T02:01:10;82.53;;;42.67;;
76900;SDS011;65859;43.020;25.096;2023-02-15T02:06:18;76.18;;;34.92;;
76900;SDS011;65859;43.020;25.096;2023-02-15T02:08:47;62.72;;;31.35;;
76900;SDS011;65859;43.020;25.096;2023-02-15T02:11:14;63.80;;;32.30;;
76900;SDS011;65859;43.020;25.096;2023-02-15T02:13:41;58.90;;;29.77;;
76900;SDS011;65859;43.020;25.096;2023-02-15T02:18:58;77.10;;;37.35;;
76900;SDS011;65859;43.020;25.096;2023-02-15T02:27:41;89.30;;;41.13;;
76900;SDS011;65859;43.020;25.096;2023-02-15T02:36:11;55.53;;;25.70;;
76900;SDS011;65859;43.020;25.096;2023-02-15T02:41:32;56.30;;;26.02;;
76900;SDS011;65859;43.020;25.096;2023-02-15T02:46:52;73.80;;;34.88;;
76900;SDS011;65859;43.020;25.096;2023-02-15T02:49:32;74.43;;;36.45;;
76900;SDS011;65859;43.020;25.096;2023-02-15T02:52:00;61.63;;;30.80;;
76900;SDS011;65859;43.020;25.096;2023-02-15T02:54:28;59.45;;;31.58;;
76900;SDS011;65859;43.020;25.096;2023-02-15T02:56:57;64.07;;;32.15;;
76900;SDS011;65859;43.020;25.096;2023-02-15T02:59:28;65.28;;;32.15;;
76900;SDS011;65859;43.020;25.096;2023-02-15T03:02:01;63.88;;;33.30;;
76900;SDS011;65859;43.020;25.096;2023-02-15T03:04:38;62.95;;;30.50;;
76900;SDS011;65859;43.020;25.096;2023-02-15T03:07:09;56.00;;;30.73;;
76900;SDS011;65859;43.020;25.096;2023-02-15T03:09:43;57.28;;;31.73;;
76900;SDS011;65859;43.020;25.096;2023-02-15T03:12:23;55.22;;;26.23;;
76900;SDS011;65859;43.020;25.096;2023-02-15T03:14:56;48.70;;;25.80;;
76900;SDS011;65859;43.020;25.096;2023-02-15T03:17:36;54.15;;;27.92;;
76900;SDS011;65859;43.020;25.096;2023-02-15T03:20:09;59.60;;;28.45;;
76900;SDS011;65859;43.020;25.096;2023-02-15T03:22:45;51.30;;;26.88;;
76900;SDS011;65859;43.020;25.096;2023-02-15T03:25:22;58.47;;;31.40;;
76900;SDS011;65859;43.020;25.096;2023-02-15T03:28:00;53.83;;;27.53;;
76900;SDS011;65859;43.020;25.096;2023-02-15T03:30:29;65.70;;;33.20;;
76900;SDS011;65859;43.020;25.096;2023-02-15T03:32:58;60.45;;;28.80;;
76900;SDS011;65859;43.020;25.096;2023-02-15T03:35:30;55.10;;;26.80;;
76900;SDS011;65859;43.020;25.096;2023-02-15T03:38:09;65.47;;;34.03;;
76900;SDS011;65859;43.020;25.096;2023-02-15T03:40:40;58.47;;;31.63;;
76900;SDS011;65859;43.020;25.096;2023-02-15T03:46:32;60.70;;;31.30;;
76900;SDS011;65859;43.020;25.096;2023-02-15T03:49:20;56.60;;;28.30;;
76900;SDS011;65859;43.020;25.096;2023-02-15T03:51:55;56.67;;;28.70;;
76900;SDS011;65859;43.020;25.096;2023-02-15T03:54:25;73.75;;;38.83;;
76900;SDS011;65859;43.020;25.096;2023-02-15T03:57:13;80.43;;;36.50;;
76900;SDS011;65859;43.020;25.096;2023-02-15T04:00:02;62.10;;;29.30;;
76900;SDS011;65859;43.020;25.096;2023-02-15T04:03:28;38.13;;;18.50;;
76900;SDS011;65859;43.020;25.096;2023-02-15T04:05:56;45.90;;;22.45;;
76900;SDS011;65859;43.020;25.096;2023-02-15T04:08:23;56.92;;;25.92;;
76900;SDS011;65859;43.020;25.096;2023-02-15T04:11:09;78.63;;;40.65;;
76900;SDS011;65859;43.020;25.096;2023-02-15T04:13:35;72.22;;;33.00;;
76900;SDS011;65859;43.020;25.096;2023-02-15T04:16:02;81.50;;;43.65;;
76900;SDS011;65859;43.020;25.096;2023-02-15T04:18:38;57.22;;;28.13;;
76900;SDS011;65859;43.020;25.096;2023-02-15T04:21:25;54.97;;;26.67;;
76900;SDS011;65859;43.020;25.096;2023-02-15T04:24:11;51.33;;;25.77;;
76900;SDS011;65859;43.020;25.096;2023-02-15T04:26:59;52.42;;;24.92;;
76900;SDS011;65859;43.020;25.096;2023-02-15T04:29:26;57.25;;;28.30;;
76900;SDS011;65859;43.020;25.096;2023-02-15T04:31:53;89.72;;;39.63;;
76900;SDS011;65859;43.020;25.096;2023-02-15T04:34:21;61.83;;;32.28;;
76900;SDS011;65859;43.020;25.096;2023-02-15T04:36:48;70.10;;;33.72;;
76900;SDS011;65859;43.020;25.096;2023-02-15T04:39:15;49.05;;;23.88;;
76900;SDS011;65859;43.020;25.096;2023-02-15T04:41:43;77.80;;;34.80;;
76900;SDS011;65859;43.020;25.096;2023-02-15T04:44:10;75.32;;;32.90;;
76900;SDS011;65859;43.020;25.096;2023-02-15T04:46:36;98.05;;;43.38;;
76900;SDS011;65859;43.020;25.096;2023-02-15T04:49:03;77.88;;;39.97;;
76900;SDS011;65859;43.020;25.096;2023-02-15T04:51:29;112.18;;;50.50;;
76900;SDS011;65859;43.020;25.096;2023-02-15T04:53:56;90.32;;;45.67;;
76900;SDS011;65859;43.020;25.096;2023-02-15T04:56:22;94.80;;;50.58;;
76900;SDS011;65859;43.020;25.096;2023-02-15T04:58:50;90.95;;;44.17;;
76900;SDS011;65859;43.020;25.096;2023-02-15T05:01:16;107.45;;;47.00;;
76900;SDS011;65859;43.020;25.096;2023-02-15T05:03:43;67.85;;;33.17;;
76900;SDS011;65859;43.020;25.096;2023-02-15T05:06:09;89.72;;;41.03;;
76900;SDS011;65859;43.020;25.096;2023-02-15T05:08:36;59.95;;;30.83;;
76900;SDS011;65859;43.020;25.096;2023-02-15T05:11:02;74.13;;;36.58;;
76900;SDS011;65859;43.020;25.096;2023-02-15T05:13:28;82.05;;;41.38;;
76900;SDS011;65859;43.020;25.096;2023-02-15T05:15:55;74.30;;;38.30;;
76900;SDS011;65859;43.020;25.096;2023-02-15T05:18:21;76.70;;;40.33;;
76900;SDS011;65859;43.020;25.096;2023-02-15T05:20:48;69.30;;;37.63;;
76900;SDS011;65859;43.020;25.096;2023-02-15T05:23:15;86.88;;;44.72;;
76900;SDS011;65859;43.020;25.096;2023-02-15T05:25:45;102.85;;;43.03;;
76900;SDS011;65859;43.020;25.096;2023-02-15T05:28:33;91.00;;;41.58;;
76900;SDS011;65859;43.020;25.096;2023-02-15T05:33:42;80.55;;;38.92;;
76900;SDS011;65859;43.020;25.096;2023-02-15T05:36:09;82.20;;;40.40;;
76900;SDS011;65859;43.020;25.096;2023-02-15T05:38:37;79.30;;;40.15;;
76900;SDS011;65859;43.020;25.096;2023-02-15T05:41:07;66.05;;;33.72;;
76900;SDS011;65859;43.020;25.096;2023-02-15T05:43:35;76.15;;;38.38;;
76900;SDS011;65859;43.020;25.096;2023-02-15T05:46:02;76.43;;;40.55;;
76900;SDS011;65859;43.020;25.096;2023-02-15T05:48:29;65.18;;;33.78;;
76900;SDS011;65859;43.020;25.096;2023-02-15T05:53:33;81.57;;;40.90;;
76900;SDS011;65859;43.020;25.096;2023-02-15T05:56:00;79.95;;;42.92;;
76900;SDS011;65859;43.020;25.096;2023-02-15T05:58:29;67.78;;;33.63;;
76900;SDS011;65859;43.020;25.096;2023-02-15T06:00:57;64.47;;;34.58;;
76900;SDS011;65859;43.020;25.096;2023-02-15T06:03:24;67.75;;;35.80;;
76900;SDS011;65859;43.020;25.096;2023-02-15T06:05:53;81.45;;;43.10;;
76900;SDS011;65859;43.020;25.096;2023-02-15T06:08:19;72.68;;;40.33;;
76900;SDS011;65859;43.020;25.096;2023-02-15T06:10:46;71.85;;;38.53;;
76900;SDS011;65859;43.020;25.096;2023-02-15T06:13:13;70.38;;;37.45;;
76900;SDS011;65859;43.020;25.096;2023-02-15T06:15:39;101.65;;;50.97;;
76900;SDS011;65859;43.020;25.096;2023-02-15T06:18:05;91.03;;;42.88;;
76900;SDS011;65859;43.020;25.096;2023-02-15T06:20:32;80.72;;;41.78;;
76900;SDS011;65859;43.020;25.096;2023-02-15T06:22:58;81.78;;;39.90;;
76900;SDS011;65859;43.020;25.096;2023-02-15T06:25:25;102.45;;;49.38;;
76900;SDS011;65859;43.020;25.096;2023-02-15T06:27:51;108.40;;;45.45;;
76900;SDS011;65859;43.020;25.096;2023-02-15T06:30:19;176.13;;;79.45;;
76900;SDS011;65859;43.020;25.096;2023-02-15T06:32:45;120.45;;;55.38;;
76900;SDS011;65859;43.020;25.096;2023-02-15T06:35:13;118.93;;;57.90;;
76900;SDS011;65859;43.020;25.096;2023-02-15T06:37:39;98.25;;;50.40;;
76900;SDS011;65859;43.020;25.096;2023-02-15T06:40:06;108.85;;;51.13;;
76900;SDS011;65859;43.020;25.096;2023-02-15T06:42:33;98.53;;;50.28;;
76900;SDS011;65859;43.020;25.096;2023-02-15T06:44:59;84.32;;;45.35;;
76900;SDS011;65859;43.020;25.096;2023-02-15T06:47:26;74.35;;;38.28;;
76900;SDS011;65859;43.020;25.096;2023-02-15T06:49:53;94.30;;;49.80;;
76900;SDS011;65859;43.020;25.096;2023-02-15T06:52:19;110.78;;;57.10;;
76900;SDS011;65859;43.020;25.096;2023-02-15T06:54:45;118.65;;;57.78;;
76900;SDS011;65859;43.020;25.096;2023-02-15T06:57:12;78.50;;;44.72;;
76900;SDS011;65859;43.020;25.096;2023-02-15T06:59:38;68.07;;;40.67;;
76900;SDS011;65859;43.020;25.096;2023-02-15T07:02:06;89.30;;;49.03;;
76900;SDS011;65859;43.020;25.096;2023-02-15T07:04:34;107.78;;;60.67;;
76900;SDS011;65859;43.020;25.096;2023-02-15T07:07:01;101.82;;;59.03;;
76900;SDS011;65859;43.020;25.096;2023-02-15T07:09:28;71.20;;;42.60;;
76900;SDS011;65859;43.020;25.096;2023-02-15T07:11:54;60.67;;;34.13;;
76900;SDS011;65859;43.020;25.096;2023-02-15T07:14:39;78.28;;;43.25;;
76900;SDS011;65859;43.020;25.096;2023-02-15T07:17:06;63.70;;;35.70;;
76900;SDS011;65859;43.020;25.096;2023-02-15T07:19:32;51.28;;;28.20;;
76900;SDS011;65859;43.020;25.096;2023-02-15T07:21:59;37.58;;;22.58;;
76900;SDS011;65859;43.020;25.096;2023-02-15T07:24:25;32.08;;;20.40;;
76900;SDS011;65859;43.020;25.096;2023-02-15T07:26:51;33.10;;;20.30;;
76900;SDS011;65859;43.020;25.096;2023-02-15T07:29:18;33.63;;;20.48;;
76900;SDS011;65859;43.020;25.096;2023-02-15T07:31:45;28.52;;;17.80;;
76900;SDS011;65859;43.020;25.096;2023-02-15T07:34:12;27.42;;;15.93;;
76900;SDS011;65859;43.020;25.096;2023-02-15T07:36:38;32.50;;;19.52;;
76900;SDS011;65859;43.020;25.096;2023-02-15T07:39:06;37.55;;;21.95;;
76900;SDS011;65859;43.020;25.096;2023-02-15T07:41:32;31.05;;;18.70;;
76900;SDS011;65859;43.020;25.096;2023-02-15T07:43:59;53.55;;;31.15;;
76900;SDS011;65859;43.020;25.096;2023-02-15T07:46:25;32.28;;;18.38;;
76900;SDS011;65859;43.020;25.096;2023-02-15T07:48:52;34.33;;;20.73;;
76900;SDS011;65859;43.020;25.096;2023-02-15T07:51:18;35.95;;;22.17;;
76900;SDS011;65859;43.020;25.096;2023-02-15T07:53:44;31.77;;;18.63;;
76900;SDS011;65859;43.020;25.096;2023-02-15T07:56:12;30.83;;;19.02;;
76900;SDS011;65859;43.020;25.096;2023-02-15T07:58:39;35.45;;;20.83;;
76900;SDS011;65859;43.020;25.096;2023-02-15T08:01:25;30.83;;;18.25;;
76900;SDS011;65859;43.020;25.096;2023-02-15T08:03:54;28.33;;;18.27;;
76900;SDS011;65859;43.020;25.096;2023-02-15T08:06:23;29.08;;;18.48;;
76900;SDS011;65859;43.020;25.096;2023-02-15T08:08:52;22.88;;;15.02;;
76900;SDS011;65859;43.020;25.096;2023-02-15T08:11:21;24.23;;;16.63;;
76900;SDS011;65859;43.020;25.096;2023-02-15T08:16:29;23.88;;;16.35;;
76900;SDS011;65859;43.020;25.096;2023-02-15T08:18:57;21.08;;;14.70;;
76900;SDS011;65859;43.020;25.096;2023-02-15T08:21:26;21.77;;;15.35;;
76900;SDS011;65859;43.020;25.096;2023-02-15T08:23:54;21.13;;;14.63;;
76900;SDS011;65859;43.020;25.096;2023-02-15T08:26:22;25.52;;;15.70;;
76900;SDS011;65859;43.020;25.096;2023-02-15T08:28:48;23.90;;;14.93;;
76900;SDS011;65859;43.020;25.096;2023-02-15T08:31:16;24.42;;;12.95;;
76900;SDS011;65859;43.020;25.096;2023-02-15T08:33:43;21.38;;;13.30;;
76900;SDS011;65859;43.020;25.096;2023-02-15T08:36:13;25.13;;;13.32;;
76900;SDS011;65859;43.020;25.096;2023-02-15T08:38:42;23.33;;;14.57;;
76900;SDS011;65859;43.020;25.096;2023-02-15T08:41:30;31.45;;;15.48;;
76900;SDS011;65859;43.020;25.096;2023-02-15T08:43:58;25.77;;;15.15;;
76900;SDS011;65859;43.020;25.096;2023-02-15T08:46:27;21.85;;;13.93;;
76900;SDS011;65859;43.020;25.096;2023-02-15T08:48:55;20.88;;;14.77;;
76900;SDS011;65859;43.020;25.096;2023-02-15T08:51:22;24.08;;;15.45;;
76900;SDS011;65859;43.020;25.096;2023-02-15T08:53:55;20.90;;;13.10;;
76900;SDS011;65859;43.020;25.096;2023-02-15T08:56:24;24.67;;;13.77;;
76900;SDS011;65859;43.020;25.096;2023-02-15T08:58:52;25.35;;;15.38;;
76900;SDS011;65859;43.020;25.096;2023-02-15T09:01:27;26.60;;;19.48;;
76900;SDS011;65859;43.020;25.096;2023-02-15T09:03:56;21.90;;;14.48;;
76900;SDS011;65859;43.020;25.096;2023-02-15T09:06:25;28.52;;;16.83;;
76900;SDS011;65859;43.020;25.096;2023-02-15T09:08:52;21.83;;;15.15;;
76900;SDS011;65859;43.020;25.096;2023-02-15T09:11:24;22.00;;;15.32;;
76900;SDS011;65859;43.020;25.096;2023-02-15T09:14:01;18.83;;;13.75;;
76900;SDS011;65859;43.020;25.096;2023-02-15T09:16:36;30.67;;;17.20;;
76900;SDS011;65859;43.020;25.096;2023-02-15T09:19:03;35.15;;;19.15;;
76900;SDS011;65859;43.020;25.096;2023-02-15T09:21:30;25.80;;;14.98;;
76900;SDS011;65859;43.020;25.096;2023-02-15T09:24:00;21.63;;;14.10;;
76900;SDS011;65859;43.020;25.096;2023-02-15T09:26:28;24.58;;;16.15;;
76900;SDS011;65859;43.020;25.096;2023-02-15T09:28:57;19.92;;;14.80;;
76900;SDS011;65859;43.020;25.096;2023-02-15T09:31:29;22.63;;;15.73;;
76900;SDS011;65859;43.020;25.096;2023-02-15T09:33:59;22.83;;;13.77;;
76900;SDS011;65859;43.020;25.096;2023-02-15T09:36:28;28.30;;;14.80;;
76900;SDS011;65859;43.020;25.096;2023-02-15T09:38:57;27.77;;;15.48;;
76900;SDS011;65859;43.020;25.096;2023-02-15T09:52:51;22.35;;;14.70;;
76900;SDS011;65859;43.020;25.096;2023-02-15T10:01:35;29.67;;;18.15;;
76900;SDS011;65859;43.020;25.096;2023-02-15T10:09:40;23.15;;;16.45;;
76900;SDS011;65859;43.020;25.096;2023-02-15T10:15:29;20.23;;;14.70;;
76900;SDS011;65859;43.020;25.096;2023-02-15T10:26:51;20.85;;;13.73;;
76900;SDS011;65859;43.020;25.096;2023-02-15T10:29:30;36.25;;;16.52;;
76900;SDS011;65859;43.020;25.096;2023-02-15T10:34:38;18.20;;;12.95;;
76900;SDS011;65859;43.020;25.096;2023-02-15T10:45:31;18.23;;;11.75;;
76900;SDS011;65859;43.020;25.096;2023-02-15T10:48:16;18.10;;;12.05;;
76900;SDS011;65859;43.020;25.096;2023-02-15T10:51:34;20.15;;;13.07;;
76900;SDS011;65859;43.020;25.096;2023-02-15T10:57:45;17.50;;;12.05;;
76900;SDS011;65859;43.020;25.096;2023-02-15T11:00:19;15.50;;;11.55;;
76900;SDS011;65859;43.020;25.096;2023-02-15T11:05:52;18.63;;;12.27;;
76900;SDS011;65859;43.020;25.096;2023-02-15T11:08:41;18.35;;;12.93;;
76900;SDS011;65859;43.020;25.096;2023-02-15T11:11:27;18.17;;;12.63;;
76900;SDS011;65859;43.020;25.096;2023-02-15T11:16:56;16.73;;;11.73;;
76900;SDS011;65859;43.020;25.096;2023-02-15T11:19:33;20.83;;;12.30;;
76900;SDS011;65859;43.020;25.096;2023-02-15T11:22:20;21.92;;;13.02;;
76900;SDS011;65859;43.020;25.096;2023-02-15T11:24:47;21.60;;;14.15;;
76900;SDS011;65859;43.020;25.096;2023-02-15T11:30:14;24.92;;;16.40;;
76900;SDS011;65859;43.020;25.096;2023-02-15T11:32:52;23.52;;;14.98;;
76900;SDS011;65859;43.020;25.096;2023-02-15T11:38:26;32.92;;;19.65;;
76900;SDS011;65859;43.020;25.096;2023-02-15T11:41:00;36.40;;;23.13;;
76900;SDS011;65859;43.020;25.096;2023-02-15T11:43:43;28.80;;;18.75;;
76900;SDS011;65859;43.020;25.096;2023-02-15T11:46:22;23.02;;;14.52;;
76900;SDS011;65859;43.020;25.096;2023-02-15T11:48:48;17.45;;;13.15;;
76900;SDS011;65859;43.020;25.096;2023-02-15T11:51:16;29.20;;;18.95;;
76900;SDS011;65859;43.020;25.096;2023-02-15T11:53:46;23.05;;;14.88;;
76900;SDS011;65859;43.020;25.096;2023-02-15T11:56:14;19.73;;;13.38;;
76900;SDS011;65859;43.020;25.096;2023-02-15T12:07:05;29.02;;;18.92;;
76900;SDS011;65859;43.020;25.096;2023-02-15T12:12:39;29.33;;;18.85;;
76900;SDS011;65859;43.020;25.096;2023-02-15T12:15:06;27.63;;;16.55;;
76900;SDS011;65859;43.020;25.096;2023-02-15T12:17:55;21.70;;;14.52;;
76900;SDS011;65859;43.020;25.096;2023-02-15T12:20:25;24.80;;;16.60;;
76900;SDS011;65859;43.020;25.096;2023-02-15T12:23:04;26.23;;;16.45;;
76900;SDS011;65859;43.020;25.096;2023-02-15T12:25:56;24.55;;;15.38;;
76900;SDS011;65859;43.020;25.096;2023-02-15T12:31:02;17.48;;;11.00;;
76900;SDS011;65859;43.020;25.096;2023-02-15T12:33:41;22.77;;;14.37;;
76900;SDS011;65859;43.020;25.096;2023-02-15T12:36:20;22.60;;;14.30;;
76900;SDS011;65859;43.020;25.096;2023-02-15T12:41:37;27.75;;;16.75;;
76900;SDS011;65859;43.020;25.096;2023-02-15T12:44:28;33.03;;;21.58;;
76900;SDS011;65859;43.020;25.096;2023-02-15T12:49:42;27.85;;;17.00;;
76900;SDS011;65859;43.020;25.096;2023-02-15T12:52:23;26.10;;;17.45;;
76900;SDS011;65859;43.020;25.096;2023-02-15T12:54:50;23.25;;;14.77;;
76900;SDS011;65859;43.020;25.096;2023-02-15T13:00:01;29.27;;;17.13;;
76900;SDS011;65859;43.020;25.096;2023-02-15T13:08:10;32.63;;;21.92;;
76900;SDS011;65859;43.020;25.096;2023-02-15T13:13:36;23.98;;;15.73;;
76900;SDS011;65859;43.020;25.096;2023-02-15T13:16:41;27.33;;;18.98;;
76900;SDS011;65859;43.020;25.096;2023-02-15T13:19:12;27.88;;;19.27;;
76900;SDS011;65859;43.020;25.096;2023-02-15T13:21:47;32.95;;;20.15;;
76900;SDS011;65859;43.020;25.096;2023-02-15T13:27:01;27.50;;;16.02;;
76900;SDS011;65859;43.020;25.096;2023-02-15T13:29:30;24.25;;;15.90;;
76900;SDS011;65859;43.020;25.096;2023-02-15T13:34:40;17.73;;;12.05;;
76900;SDS011;65859;43.020;25.096;2023-02-15T14:08:08;23.70;;;15.60;;
76900;SDS011;65859;43.020;25.096;2023-02-15T14:13:30;24.27;;;15.38;;
76900;SDS011;65859;43.020;25.096;2023-02-15T14:25:05;25.67;;;14.88;;
76900;SDS011;65859;43.020;25.096;2023-02-15T14:30:39;28.08;;;16.98;;
76900;SDS011;65859;43.020;25.096;2023-02-15T14:35:39;21.48;;;13.80;;
76900;SDS011;65859;43.020;25.096;2023-02-15T14:38:16;25.63;;;14.25;;
76900;SDS011;65859;43.020;25.096;2023-02-15T14:48:53;24.73;;;14.90;;
76900;SDS011;65859;43.020;25.096;2023-02-15T14:59:44;25.05;;;14.23;;
76900;SDS011;65859;43.020;25.096;2023-02-15T15:08:48;23.33;;;13.80;;
76900;SDS011;65859;43.020;25.096;2023-02-15T15:13:59;25.45;;;15.30;;
76900;SDS011;65859;43.020;25.096;2023-02-15T15:19:11;32.33;;;16.38;;
76900;SDS011;65859;43.020;25.096;2023-02-15T15:22:02;28.00;;;15.40;;
76900;SDS011;65859;43.020;25.096;2023-02-15T15:38:09;24.23;;;13.50;;
76900;SDS011;65859;43.020;25.096;2023-02-15T15:40:46;24.52;;;14.32;;
76900;SDS011;65859;43.020;25.096;2023-02-15T15:48:50;32.20;;;18.05;;
76900;SDS011;65859;43.020;25.096;2023-02-15T15:51:18;25.95;;;15.20;;
76900;SDS011;65859;43.020;25.096;2023-02-15T15:53:52;32.47;;;15.05;;
76900;SDS011;65859;43.020;25.096;2023-02-15T15:56:24;26.45;;;14.88;;
76900;SDS011;65859;43.020;25.096;2023-02-15T15:59:00;30.75;;;15.00;;
76900;SDS011;65859;43.020;25.096;2023-02-15T16:01:31;38.58;;;16.25;;
76900;SDS011;65859;43.020;25.096;2023-02-15T16:04:03;26.10;;;14.50;;
76900;SDS011;65859;43.020;25.096;2023-02-15T16:06:35;32.40;;;16.20;;
76900;SDS011;65859;43.020;25.096;2023-02-15T16:11:37;29.48;;;16.55;;
76900;SDS011;65859;43.020;25.096;2023-02-15T16:14:15;34.50;;;17.25;;
76900;SDS011;65859;43.020;25.096;2023-02-15T16:17:02;34.83;;;19.02;;
76900;SDS011;65859;43.020;25.096;2023-02-15T16:19:34;37.75;;;18.00;;
76900;SDS011;65859;43.020;25.096;2023-02-15T16:22:03;34.95;;;18.73;;
76900;SDS011;65859;43.020;25.096;2023-02-15T16:32:47;31.25;;;19.65;;
76900;SDS011;65859;43.020;25.096;2023-02-15T16:35:15;37.53;;;20.63;;
76900;SDS011;65859;43.020;25.096;2023-02-15T16:37:44;36.47;;;21.40;;
76900;SDS011;65859;43.020;25.096;2023-02-15T16:42:50;49.22;;;24.15;;
76900;SDS011;65859;43.020;25.096;2023-02-15T16:45:19;49.22;;;24.83;;
76900;SDS011;65859;43.020;25.096;2023-02-15T16:47:50;44.42;;;25.88;;
76900;SDS011;65859;43.020;25.096;2023-02-15T16:52:57;72.43;;;38.88;;
76900;SDS011;65859;43.020;25.096;2023-02-15T16:55:25;68.43;;;39.38;;
76900;SDS011;65859;43.020;25.096;2023-02-15T16:58:16;75.93;;;40.25;;
76900;SDS011;65859;43.020;25.096;2023-02-15T17:00:45;85.30;;;41.80;;
76900;SDS011;65859;43.020;25.096;2023-02-15T17:05:45;175.73;;;99.40;;
76900;SDS011;65859;43.020;25.096;2023-02-15T17:08:17;142.27;;;77.65;;
76900;SDS011;65859;43.020;25.096;2023-02-15T17:11:11;90.22;;;47.83;;
76900;SDS011;65859;43.020;25.096;2023-02-15T17:16:28;39.38;;;25.40;;
76900;SDS011;65859;43.020;25.096;2023-02-15T17:18:59;37.72;;;25.08;;
76900;SDS011;65859;43.020;25.096;2023-02-15T17:21:33;64.60;;;37.42;;
76900;SDS011;65859;43.020;25.096;2023-02-15T17:24:05;84.38;;;45.60;;
76900;SDS011;65859;43.020;25.096;2023-02-15T17:26:40;77.45;;;43.97;;
76900;SDS011;65859;43.020;25.096;2023-02-15T17:29:11;77.10;;;45.15;;
76900;SDS011;65859;43.020;25.096;2023-02-15T17:31:58;85.32;;;45.50;;
76900;SDS011;65859;43.020;25.096;2023-02-15T17:37:29;151.00;;;90.82;;
76900;SDS011;65859;43.020;25.096;2023-02-15T17:42:48;134.10;;;74.30;;
76900;SDS011;65859;43.020;25.096;2023-02-15T17:45:15;173.57;;;102.35;;
76900;SDS011;65859;43.020;25.096;2023-02-15T17:47:42;144.35;;;91.20;;
76900;SDS011;65859;43.020;25.096;2023-02-15T17:53:04;233.82;;;140.77;;
76900;SDS011;65859;43.020;25.096;2023-02-15T17:55:33;129.93;;;84.07;;
76900;SDS011;65859;43.020;25.096;2023-02-15T17:58:00;122.55;;;80.28;;
76900;SDS011;65859;43.020;25.096;2023-02-15T18:00:29;160.20;;;88.43;;
76900;SDS011;65859;43.020;25.096;2023-02-15T18:03:15;288.88;;;146.98;;
76900;SDS011;65859;43.020;25.096;2023-02-15T18:06:00;459.73;;;193.30;;
76900;SDS011;65859;43.020;25.096;2023-02-15T18:08:46;186.88;;;96.30;;
76900;SDS011;65859;43.020;25.096;2023-02-15T18:11:32;262.08;;;133.35;;
76900;SDS011;65859;43.020;25.096;2023-02-15T18:14:12;228.63;;;121.15;;
76900;SDS011;65859;43.020;25.096;2023-02-15T18:16:40;207.68;;;105.57;;
76900;SDS011;65859;43.020;25.096;2023-02-15T18:19:13;219.57;;;119.47;;
76900;SDS011;65859;43.020;25.096;2023-02-15T18:21:45;149.23;;;91.22;;
76900;SDS011;65859;43.020;25.096;2023-02-15T18:24:16;93.15;;;55.80;;
76900;SDS011;65859;43.020;25.096;2023-02-15T18:26:44;139.88;;;86.55;;
76900;SDS011;65859;43.020;25.096;2023-02-15T18:29:12;182.02;;;114.80;;
76900;SDS011;65859;43.020;25.096;2023-02-15T18:31:39;112.55;;;64.32;;
76900;SDS011;65859;43.020;25.096;2023-02-15T18:34:08;165.23;;;95.03;;
76900;SDS011;65859;43.020;25.096;2023-02-15T18:36:49;184.43;;;110.57;;
76900;SDS011;65859;43.020;25.096;2023-02-15T18:39:26;110.05;;;65.07;;
76900;SDS011;65859;43.020;25.096;2023-02-15T18:42:02;98.47;;;59.03;;
76900;SDS011;65859;43.020;25.096;2023-02-15T18:44:32;254.43;;;128.52;;
76900;SDS011;65859;43.020;25.096;2023-02-15T18:46:58;116.63;;;64.00;;
76900;SDS011;65859;43.020;25.096;2023-02-15T18:49:25;179.70;;;88.80;;
76900;SDS011;65859;43.020;25.096;2023-02-15T18:51:51;165.52;;;82.70;;
76900;SDS011;65859;43.020;25.096;2023-02-15T18:54:23;378.50;;;143.70;;
76900;SDS011;65859;43.020;25.096;2023-02-15T18:56:53;569.60;;;271.98;;